createdAt,value
2019-01-25T00:00:50.545Z,7.00
2019-01-25T00:03:20.012Z,7.50
2019-01-25T00:05:50.633Z,5.67
2019-01-25T00:08:20.044Z,6.70
2019-01-25T00:10:49.772Z,7.43
2019-01-25T00:13:19.206Z,8.67
2019-01-25T00:15:48.817Z,9.75
2019-01-25T00:18:18.925Z,5.22
2019-01-25T00:20:48.641Z,5.57
2019-01-25T00:23:18.635Z,8.55
2019-01-25T00:25:48.411Z,6.83
2019-01-25T00:28:17.806Z,7.30
2019-01-25T00:30:47.284Z,7.03
2019-01-25T00:33:16.824Z,6.28
2019-01-25T00:35:46.148Z,7.00
2019-01-25T00:38:15.819Z,8.73
2019-01-25T00:40:45.683Z,10.08
2019-01-25T00:43:15.020Z,9.27
2019-01-25T00:45:44.377Z,8.87
2019-01-25T00:48:32.920Z,12.10
2019-01-25T00:51:02.291Z,8.87
2019-01-25T00:53:31.760Z,7.97
2019-01-25T00:56:02.253Z,10.28
2019-01-25T00:58:31.609Z,7.80
2019-01-25T01:01:00.959Z,8.40
2019-01-25T01:03:31.192Z,9.48
2019-01-25T01:06:00.918Z,8.33
2019-01-25T01:08:30.370Z,10.30
2019-01-25T01:10:59.939Z,8.43
2019-01-25T01:13:29.275Z,7.30
2019-01-25T01:19:14.253Z,8.80
2019-01-25T01:21:43.681Z,12.25
2019-01-25T01:24:13.158Z,8.05
2019-01-25T01:29:38.698Z,6.35
2019-01-25T01:35:33.268Z,6.40
2019-01-25T01:44:20.483Z,10.63
2019-01-25T01:46:51.747Z,6.42
2019-01-25T01:49:22.326Z,9.40
2019-01-25T01:51:51.778Z,9.27
2019-01-25T01:55:00.814Z,7.25
2019-01-25T01:57:30.712Z,8.60
2019-01-25T02:00:00.030Z,6.70
2019-01-25T02:02:29.365Z,7.77
2019-01-25T02:04:59.008Z,6.67
2019-01-25T02:07:28.860Z,7.10
2019-01-25T02:09:58.217Z,9.07
2019-01-25T02:12:27.565Z,7.27
2019-01-25T02:14:57.014Z,5.77
2019-01-25T02:17:26.445Z,6.43
2019-01-25T02:22:32.155Z,8.57
2019-01-25T02:25:01.656Z,7.00
2019-01-25T02:27:31.179Z,8.93
2019-01-25T02:30:00.649Z,7.10
2019-01-25T02:32:29.979Z,7.27
2019-01-25T02:34:59.449Z,7.23
2019-01-25T02:37:47.905Z,8.07
2019-01-25T02:43:33.783Z,7.93
2019-01-25T02:46:03.241Z,8.57
2019-01-25T02:51:28.573Z,6.93
2019-01-25T02:57:12.913Z,5.90
2019-01-25T02:59:43.422Z,8.20
2019-01-25T03:02:12.808Z,8.27
2019-01-25T03:04:42.252Z,10.80
2019-01-25T03:13:22.325Z,8.43
2019-01-25T03:19:00.813Z,8.67
2019-01-25T03:25:04.211Z,7.83
2019-01-25T03:27:33.797Z,8.33
2019-01-25T03:30:06.782Z,7.73
2019-01-25T03:32:36.136Z,7.27
2019-01-25T03:35:06.649Z,10.57
2019-01-25T03:37:36.295Z,7.07
2019-01-25T03:40:45.948Z,4.53
2019-01-25T03:43:15.880Z,8.70
2019-01-25T03:45:45.242Z,9.77
2019-01-25T03:48:14.890Z,8.40
2019-01-25T03:50:45.243Z,11.87
2019-01-25T03:53:17.198Z,9.37
2019-01-25T03:55:46.967Z,6.63
2019-01-25T03:58:35.850Z,7.30
2019-01-25T04:01:17.803Z,8.17
2019-01-25T04:03:47.089Z,6.37
2019-01-25T04:06:16.428Z,9.07
2019-01-25T04:08:45.874Z,8.03
2019-01-25T04:11:15.484Z,9.50
2019-01-25T04:13:44.813Z,10.50
2019-01-25T04:16:14.184Z,8.03
2019-01-25T04:18:43.615Z,13.03
2019-01-25T04:21:13.244Z,7.00
2019-01-25T04:23:43.302Z,10.68
2019-01-25T04:29:21.757Z,10.30
2019-01-25T04:31:51.095Z,14.50
2019-01-25T04:34:20.492Z,11.25
2019-01-25T04:36:49.867Z,9.40
2019-01-25T04:39:19.326Z,10.57
2019-01-25T04:41:48.689Z,10.57
2019-01-25T04:44:18.086Z,15.50
2019-01-25T04:46:47.438Z,10.73
2019-01-25T04:49:16.782Z,11.80
2019-01-25T04:51:46.554Z,13.23
2019-01-25T04:54:15.875Z,17.45
2019-01-25T04:56:45.574Z,12.60
2019-01-25T05:01:56.867Z,15.53
2019-01-25T05:07:53.288Z,11.90
2019-01-25T05:10:34.992Z,10.97
2019-01-25T05:13:04.966Z,10.47
2019-01-25T05:21:50.218Z,11.70
2019-01-25T05:24:59.211Z,9.67
2019-01-25T05:27:28.931Z,11.48
2019-01-25T05:29:58.452Z,9.65
2019-01-25T05:32:27.763Z,13.17
2019-01-25T05:34:57.247Z,14.30
2019-01-25T05:40:36.474Z,11.30
2019-01-25T05:43:45.260Z,11.30
2019-01-25T05:46:14.926Z,11.93
2019-01-25T05:48:44.286Z,9.90
2019-01-25T05:51:13.648Z,11.33
2019-01-25T05:53:53.090Z,12.47
2019-01-25T05:59:38.423Z,16.27
2019-01-25T06:05:56.568Z,12.15
2019-01-25T06:08:45.369Z,14.05
2019-01-25T06:11:54.614Z,13.75
2019-01-25T06:14:24.512Z,12.82
2019-01-25T06:16:53.837Z,14.07
2019-01-25T06:19:23.373Z,14.53
2019-01-25T06:21:55.509Z,11.12
2019-01-25T06:24:25.093Z,13.78
2019-01-25T06:26:54.509Z,11.18
2019-01-25T06:29:23.952Z,17.60
2019-01-25T06:31:53.386Z,13.13
2019-01-25T06:34:22.872Z,14.25
2019-01-25T06:36:52.435Z,10.08
2019-01-25T06:39:21.850Z,15.90
2019-01-25T06:41:51.235Z,10.80
2019-01-25T06:44:20.754Z,16.97
2019-01-25T06:46:50.475Z,16.40
2019-01-25T06:49:19.916Z,14.87
2019-01-25T06:54:59.404Z,13.08
2019-01-25T06:57:36.063Z,11.83
2019-01-25T07:00:08.637Z,17.30
2019-01-25T07:02:40.437Z,13.25
2019-01-25T07:05:31.418Z,12.37
2019-01-25T07:13:52.540Z,15.88
2019-01-25T07:16:21.998Z,12.85
2019-01-25T07:18:51.481Z,13.50
2019-01-25T07:21:20.862Z,16.23
2019-01-25T07:23:50.329Z,14.70
2019-01-25T07:26:19.811Z,13.85
2019-01-25T07:28:49.624Z,10.32
2019-01-25T07:31:19.140Z,17.75
2019-01-25T07:33:48.652Z,16.27
2019-01-25T07:36:18.159Z,9.90
2019-01-25T07:38:47.587Z,17.10
2019-01-25T07:41:17.088Z,14.47
2019-01-25T07:43:47.156Z,13.38
2019-01-25T07:46:16.661Z,13.68
2019-01-25T07:48:46.170Z,10.88
2019-01-25T07:51:15.637Z,15.70
2019-01-25T07:53:45.179Z,14.75
2019-01-25T07:56:14.565Z,14.50
2019-01-25T07:58:43.987Z,15.10
2019-01-25T08:01:13.476Z,14.87
2019-01-25T08:06:36.557Z,10.68
2019-01-25T08:12:28.852Z,12.28
2019-01-25T08:14:58.780Z,12.98
2019-01-25T08:17:28.349Z,12.68
2019-01-25T08:19:59.324Z,12.78
2019-01-25T08:22:28.935Z,9.50
2019-01-25T08:24:58.770Z,12.45
2019-01-25T08:27:29.071Z,10.20
2019-01-25T08:29:58.671Z,12.55
2019-01-25T08:32:28.267Z,12.70
2019-01-25T08:34:57.886Z,11.15
2019-01-25T08:37:27.402Z,14.23
2019-01-25T08:39:56.984Z,14.00
2019-01-25T08:42:26.449Z,16.30
2019-01-25T08:44:55.813Z,12.28
2019-01-25T08:47:27.651Z,11.83
2019-01-25T08:49:58.023Z,13.40
2019-01-25T08:52:27.613Z,9.50
2019-01-25T08:54:57.019Z,13.68
2019-01-25T08:57:26.624Z,17.92
2019-01-25T09:00:16.208Z,15.70
2019-01-25T09:02:45.639Z,9.65
2019-01-25T09:08:48.234Z,15.18
2019-01-25T09:11:18.358Z,16.55
2019-01-25T09:13:47.848Z,14.43
2019-01-25T09:16:18.118Z,15.93
2019-01-25T09:21:56.434Z,15.93
2019-01-25T09:24:25.962Z,9.18
2019-01-25T09:26:55.632Z,14.63
2019-01-25T09:29:25.658Z,12.13
2019-01-25T09:31:55.238Z,14.15
2019-01-25T09:34:24.591Z,13.53
2019-01-25T09:36:54.100Z,11.25
2019-01-25T09:42:13.545Z,11.45
2019-01-25T09:45:02.646Z,18.83
2019-01-25T09:47:35.103Z,13.35
2019-01-25T09:50:05.767Z,13.65
2019-01-25T09:52:35.130Z,16.75
2019-01-25T09:58:39.108Z,13.43
2019-01-25T10:01:10.413Z,10.58
2019-01-25T10:03:40.052Z,10.18
2019-01-25T10:09:05.299Z,7.20
2019-01-25T10:17:18.415Z,12.18
2019-01-25T10:19:48.237Z,11.18
2019-01-25T10:22:17.822Z,13.72
2019-01-25T10:24:47.343Z,12.03
2019-01-25T10:27:16.706Z,9.55
2019-01-25T10:29:46.618Z,8.63
2019-01-25T10:32:16.102Z,8.43
2019-01-25T10:34:45.556Z,10.55
2019-01-25T10:37:17.079Z,14.65
2019-01-25T10:39:46.967Z,11.95
2019-01-25T10:42:16.312Z,8.10
2019-01-25T10:44:46.088Z,11.05
2019-01-25T10:47:17.631Z,10.05
2019-01-25T10:49:47.277Z,9.33
2019-01-25T10:52:16.627Z,2.17
2019-01-25T10:54:46.309Z,10.00
2019-01-25T11:00:26.377Z,8.10
2019-01-25T11:02:58.349Z,12.13
2019-01-25T11:06:06.503Z,10.30
2019-01-25T11:08:36.246Z,6.23
2019-01-25T11:11:05.902Z,8.58
2019-01-25T11:13:35.513Z,8.88
2019-01-25T11:16:05.428Z,8.28
2019-01-25T11:18:35.055Z,11.53
2019-01-25T11:21:04.787Z,8.05
2019-01-25T11:23:34.243Z,7.28
2019-01-25T11:28:52.783Z,4.15
2019-01-25T11:31:24.373Z,9.00
2019-01-25T11:33:53.990Z,8.58
2019-01-25T11:36:23.846Z,12.60
2019-01-25T11:38:53.194Z,5.15
2019-01-25T11:41:22.540Z,12.37
2019-01-25T11:43:52.271Z,2.42
2019-01-25T11:46:21.835Z,9.63
2019-01-25T11:48:52.662Z,7.15
2019-01-25T11:51:24.489Z,2.80
2019-01-25T11:53:54.276Z,6.75
2019-01-25T11:56:24.605Z,8.73
2019-01-25T11:58:54.066Z,6.28
2019-01-25T12:01:24.228Z,2.87
2019-01-25T12:03:53.647Z,4.33
2019-01-25T12:06:23.525Z,8.10
2019-01-25T12:08:53.875Z,5.85
2019-01-25T12:11:23.363Z,7.00
2019-01-25T12:13:52.812Z,9.83
2019-01-25T12:17:02.903Z,6.58
2019-01-25T12:19:32.441Z,9.20
2019-01-25T12:22:42.019Z,9.30
2019-01-25T12:31:02.535Z,5.60
2019-01-25T12:33:32.096Z,9.58
2019-01-25T12:36:02.319Z,4.25
2019-01-25T12:38:31.731Z,7.35
2019-01-25T12:41:02.414Z,8.85
2019-01-25T12:43:32.120Z,8.78
2019-01-25T12:46:01.700Z,7.55
2019-01-25T12:48:31.326Z,6.65
2019-01-25T12:51:09.264Z,8.70
2019-01-25T12:53:39.075Z,8.83
2019-01-25T12:56:09.143Z,6.10
2019-01-25T12:58:38.751Z,9.18
2019-01-25T13:01:09.910Z,5.42
2019-01-25T13:03:39.791Z,4.72
2019-01-25T13:06:09.515Z,4.28
2019-01-25T13:08:39.140Z,7.22
2019-01-25T13:11:08.794Z,5.25
2019-01-25T13:13:40.191Z,3.80
2019-01-25T13:16:09.711Z,7.62
2019-01-25T13:18:39.572Z,5.13
2019-01-25T13:21:10.139Z,9.50
2019-01-25T13:23:42.651Z,8.35
2019-01-25T13:26:12.538Z,8.70
2019-01-25T13:28:42.139Z,5.87
2019-01-25T13:31:12.840Z,6.95
2019-01-25T13:33:43.002Z,5.72
2019-01-25T13:36:13.204Z,8.20
2019-01-25T13:38:42.817Z,4.62
2019-01-25T13:41:13.205Z,3.75
2019-01-25T13:43:42.930Z,7.17
2019-01-25T13:46:12.397Z,6.28
2019-01-25T13:48:45.023Z,6.55
2019-01-25T13:51:15.142Z,4.87
2019-01-25T13:53:48.118Z,3.35
2019-01-25T13:56:18.021Z,5.22
2019-01-25T13:58:47.897Z,9.60
2019-01-25T14:01:17.398Z,5.83
2019-01-25T14:03:47.282Z,6.60
2019-01-25T14:06:17.261Z,7.28
2019-01-25T14:08:47.315Z,4.87
2019-01-25T14:11:19.099Z,3.90
2019-01-25T14:14:28.210Z,2.45
2019-01-25T14:16:57.627Z,5.90
2019-01-25T14:19:46.116Z,4.22
2019-01-25T14:24:55.528Z,10.40
2019-01-25T14:28:04.478Z,6.53
2019-01-25T14:31:14.967Z,5.60
2019-01-25T14:33:45.960Z,4.85
2019-01-25T14:36:15.698Z,7.17
2019-01-25T14:38:45.799Z,3.02
2019-01-25T14:41:15.593Z,3.20
2019-01-25T14:43:46.214Z,3.12
2019-01-25T14:46:18.969Z,2.83
2019-01-25T14:48:48.464Z,5.03
2019-01-25T14:51:17.907Z,10.88
2019-01-25T14:53:50.888Z,5.87
2019-01-25T14:56:19.143Z,1.85
2019-01-25T14:58:48.581Z,2.20
2019-01-25T15:01:18.405Z,6.20
2019-01-25T15:03:48.561Z,4.00
2019-01-25T15:06:18.349Z,4.12
2019-01-25T15:08:48.681Z,4.22
2019-01-25T15:11:19.576Z,3.90
2019-01-25T15:13:49.857Z,14.03
2019-01-25T15:16:21.907Z,2.20
2019-01-25T15:18:52.048Z,3.33
2019-01-25T15:21:21.298Z,5.75
2019-01-25T15:23:53.721Z,6.15
2019-01-25T15:26:24.195Z,4.78
2019-01-25T15:28:53.905Z,4.62
2019-01-25T15:31:24.091Z,2.15
2019-01-25T15:33:53.666Z,4.20
2019-01-25T15:36:23.659Z,3.25
2019-01-25T15:38:53.446Z,5.90
2019-01-25T15:41:23.506Z,6.90
2019-01-25T15:43:53.006Z,1.75
2019-01-25T15:46:24.986Z,4.65
2019-01-25T15:49:14.676Z,2.95
2019-01-25T15:51:44.244Z,4.00
2019-01-25T15:54:14.432Z,3.98
2019-01-25T15:56:45.252Z,5.35
2019-01-25T15:59:15.990Z,2.27
2019-01-25T16:01:47.601Z,3.67
2019-01-25T16:04:58.842Z,5.90
2019-01-25T16:13:09.985Z,6.28
2019-01-25T16:16:19.154Z,2.70
2019-01-25T16:19:29.990Z,8.80
2019-01-25T16:31:15.967Z,1.30
2019-01-25T16:37:19.455Z,2.83
2019-01-25T16:39:49.111Z,4.28
2019-01-25T16:42:18.953Z,2.67
2019-01-25T16:44:49.112Z,2.25
2019-01-25T16:47:19.163Z,10.65
2019-01-25T16:49:49.225Z,3.08
2019-01-25T16:52:19.155Z,6.58
2019-01-25T16:54:48.586Z,4.30
2019-01-25T16:57:21.645Z,4.22
2019-01-25T16:59:52.341Z,5.78
2019-01-25T17:08:53.015Z,5.50
2019-01-25T17:14:04.582Z,5.42
2019-01-25T17:17:13.918Z,3.30
2019-01-25T17:20:03.237Z,6.17
2019-01-25T17:25:48.756Z,6.67
2019-01-25T17:28:58.197Z,3.12
2019-01-25T17:32:07.673Z,3.50
2019-01-25T17:37:52.762Z,8.38
2019-01-25T17:40:24.248Z,6.83
2019-01-25T17:42:53.958Z,3.77
2019-01-25T17:45:25.226Z,6.03
2019-01-25T17:47:55.104Z,3.00
2019-01-25T17:50:24.731Z,5.42
2019-01-25T17:52:55.068Z,2.17
2019-01-25T17:55:24.992Z,6.42
2019-01-25T18:01:12.348Z,3.70
2019-01-25T18:09:39.982Z,3.20
2019-01-25T18:15:40.476Z,4.95
2019-01-25T18:20:52.414Z,1.67
2019-01-25T18:23:23.213Z,9.05
2019-01-25T18:25:59.770Z,4.55
2019-01-25T18:29:07.618Z,6.25
2019-01-25T18:31:57.290Z,7.30
2019-01-25T18:34:27.131Z,4.47
2019-01-25T18:36:57.323Z,4.00
2019-01-25T18:42:32.645Z,3.40
2019-01-25T18:45:02.228Z,7.20
2019-01-25T18:47:31.857Z,7.92
2019-01-25T18:50:01.441Z,4.17
2019-01-25T18:52:33.226Z,2.10
2019-01-25T18:55:02.668Z,5.00
2019-01-25T19:00:29.962Z,3.37
2019-01-25T19:02:59.660Z,7.37
2019-01-25T19:05:30.127Z,4.40
2019-01-25T19:07:59.914Z,5.72
2019-01-25T19:10:29.928Z,1.42
2019-01-25T19:13:42.617Z,2.08
2019-01-25T19:16:15.151Z,3.17
2019-01-25T19:18:47.164Z,5.28
2019-01-25T19:21:16.820Z,14.87
2019-01-25T19:23:48.117Z,1.93
2019-01-25T19:26:57.370Z,4.97
2019-01-25T19:29:27.008Z,7.83
2019-01-25T19:32:36.248Z,1.80
2019-01-25T19:35:06.982Z,3.70
2019-01-25T19:37:36.394Z,0.70
2019-01-25T19:40:08.676Z,2.10
2019-01-25T19:42:38.139Z,3.92
2019-01-25T19:45:11.940Z,9.93
2019-01-25T19:47:39.711Z,1.92
2019-01-25T19:50:13.077Z,4.45
2019-01-25T19:52:42.709Z,3.33
2019-01-25T19:55:17.241Z,4.60
2019-01-25T19:57:46.724Z,1.25
2019-01-25T20:00:19.032Z,2.77
2019-01-25T20:03:28.142Z,6.10
2019-01-25T20:05:58.637Z,4.33
2019-01-25T20:08:28.354Z,4.87
2019-01-25T20:11:38.070Z,2.80
2019-01-25T20:14:08.379Z,6.72
2019-01-25T20:16:38.040Z,5.67
2019-01-25T20:19:08.287Z,3.58
2019-01-25T20:21:37.809Z,3.40
2019-01-25T20:24:07.541Z,5.67
2019-01-25T20:26:37.340Z,3.55
2019-01-25T20:29:06.766Z,1.60
2019-01-25T20:31:36.599Z,2.67
2019-01-25T20:34:47.552Z,1.12
2019-01-25T20:37:17.300Z,6.87
2019-01-25T20:39:48.180Z,2.77
2019-01-25T20:42:18.720Z,5.83
2019-01-25T20:44:48.552Z,2.90
2019-01-25T20:47:18.813Z,1.23
2019-01-25T20:49:48.671Z,5.28
2019-01-25T20:55:39.143Z,2.67
2019-01-25T21:04:28.807Z,4.62
2019-01-25T21:06:58.691Z,6.00
2019-01-25T21:09:28.991Z,6.40
2019-01-25T21:11:58.543Z,3.83
2019-01-25T21:14:58.803Z,3.10
2019-01-25T21:20:37.428Z,2.70
2019-01-25T21:23:07.495Z,3.15
2019-01-25T21:25:37.409Z,1.20
2019-01-25T21:28:07.647Z,5.65
2019-01-25T21:30:37.556Z,6.92
2019-01-25T21:33:07.917Z,4.75
2019-01-25T21:35:37.842Z,3.67
2019-01-25T21:38:08.190Z,4.70
2019-01-25T21:40:37.906Z,3.05
2019-01-25T21:43:08.064Z,5.12
2019-01-25T21:45:42.902Z,7.42
2019-01-25T21:48:12.399Z,1.85
2019-01-25T21:50:43.765Z,4.53
2019-01-25T21:53:13.371Z,1.90
2019-01-25T21:55:43.156Z,3.67
2019-01-25T21:58:12.903Z,1.32
2019-01-25T22:00:42.788Z,3.58
2019-01-25T22:03:12.416Z,2.27
2019-01-25T22:05:42.028Z,1.90
2019-01-25T22:08:12.699Z,1.12
2019-01-25T22:10:47.756Z,6.33
2019-01-25T22:13:18.599Z,2.80
2019-01-25T22:15:50.986Z,1.82
2019-01-25T22:39:36.350Z,2.33
2019-01-25T22:42:06.182Z,4.42
2019-01-25T22:44:35.806Z,2.30
2019-01-25T22:47:05.585Z,6.08
2019-01-25T22:49:35.161Z,2.22
2019-01-25T22:52:04.756Z,0.68
2019-01-25T22:54:35.149Z,4.35
2019-01-25T22:57:04.638Z,1.37
2019-01-25T22:59:34.018Z,2.20
2019-01-25T23:02:03.561Z,2.12
2019-01-25T23:07:16.537Z,0.55
2019-01-25T23:13:03.482Z,3.02
2019-01-25T23:18:48.400Z,2.15
2019-01-25T23:25:06.754Z,1.12
2019-01-25T23:30:51.196Z,3.65
2019-01-25T23:34:00.070Z,4.83
2019-01-25T23:39:25.749Z,2.33
2019-01-25T23:45:01.297Z,3.12
2019-01-25T23:47:30.879Z,4.92
2019-01-25T23:50:00.418Z,2.12
2019-01-25T23:52:29.812Z,0.98
2019-01-25T23:55:38.597Z,5.47
